Aviation Digital Data Service (ADDS)

Output produced by METARs form (1105 UTC 18 October 2017)
found at http://www.aviationweather.gov/adds/metars/
 
OKBK 181100Z 02009KT CAVOK 36/05 Q1012 NOSIG
TAF OKBK 181045Z 1812/1918 01010KT 7000 NSC